UAL1911 KIAH-KSAN
Flight info
| Callsign | UAL1911 |
|---|---|
| Flight time | N/A |
| Altitude | 32000 |
| Route | PITZZ5 CRGER EWM Q2 ITUCO GBN HOGGZ LUCKI1 |
| Aircraft | B738/M-SDE2E3FGHIRWXY/LB1 |
Departure
| Time | 2026-05-01 14:58 |
|---|---|
| Airport | George Bush Intercontinental Airport (KIAH) |
Arrival
| Time | N/A |
|---|---|
| Airport | San Diego International Airport (KSAN) |
| Time | Latitude | Longitude | Altitude | Speed | Heading |
|---|---|---|---|---|---|
| 2026-05-01 14:15 | 29.98526 | -95.35088 | 106 ft | 0 kts | 0° |
| 2026-05-01 14:39 | 29.98512 | -95.35090 | 105 ft | 4 kts | 46° |
| 2026-05-01 14:39 | 29.98495 | -95.35105 | 106 ft | 2 kts | 15° |
| 2026-05-01 14:40 | 29.98472 | -95.35109 | 105 ft | 4 kts | 342° |
| 2026-05-01 14:40 | 29.98455 | -95.35094 | 105 ft | 4 kts | 287° |
| 2026-05-01 14:40 | 29.98452 | -95.35066 | 105 ft | 4 kts | 270° |
| 2026-05-01 14:40 | 29.98452 | -95.35057 | 104 ft | 0 kts | 270° |
| 2026-05-01 14:48 | 29.98453 | -95.35155 | 106 ft | 8 kts | 270° |
| 2026-05-01 14:48 | 29.98459 | -95.35221 | 105 ft | 9 kts | 289° |
| 2026-05-01 14:48 | 29.98582 | -95.35328 | 105 ft | 9 kts | 333° |
| 2026-05-01 14:49 | 29.98632 | -95.35358 | 106 ft | 2 kts | 332° |
| 2026-05-01 14:49 | 29.98703 | -95.35402 | 106 ft | 13 kts | 332° |
| 2026-05-01 14:50 | 29.98843 | -95.35484 | 106 ft | 18 kts | 342° |
| 2026-05-01 14:50 | 29.98986 | -95.35455 | 106 ft | 12 kts | 59° |
| 2026-05-01 14:51 | 29.98993 | -95.35362 | 106 ft | 12 kts | 89° |
| 2026-05-01 14:51 | 29.99102 | -95.35277 | 106 ft | 11 kts | 1° |
| 2026-05-01 14:52 | 29.99180 | -95.35277 | 106 ft | 3 kts | 2° |
| 2026-05-01 14:52 | 29.99207 | -95.35276 | 106 ft | 4 kts | 1° |
| 2026-05-01 14:52 | 29.99240 | -95.35277 | 106 ft | 0 kts | 360° |
| 2026-05-01 14:54 | 29.99263 | -95.35277 | 107 ft | 8 kts | 360° |
| 2026-05-01 14:54 | 29.99335 | -95.35272 | 107 ft | 9 kts | 31° |
| 2026-05-01 14:55 | 29.99343 | -95.35245 | 107 ft | 0 kts | 92° |
| 2026-05-01 14:56 | 29.99343 | -95.35242 | 107 ft | 0 kts | 92° |
| 2026-05-01 14:56 | 29.99343 | -95.35237 | 107 ft | 0 kts | 92° |
| 2026-05-01 14:57 | 29.99342 | -95.35202 | 108 ft | 24 kts | 90° |
| 2026-05-01 14:57 | 29.99344 | -95.33866 | 104 ft | 136 kts | 90° |
| 2026-05-01 14:57 | 29.99335 | -95.32597 | 140 ft | 178 kts | 90° |
| 2026-05-01 14:58 | 29.99314 | -95.31169 | 736 ft | 184 kts | 87° |
| 2026-05-01 14:58 | 29.99287 | -95.29678 | 1434 ft | 186 kts | 84° |
| 2026-05-01 14:58 | 29.99228 | -95.28222 | 2154 ft | 187 kts | 89° |
| 2026-05-01 14:58 | 29.99140 | -95.26622 | 2332 ft | 211 kts | 90° |
| 2026-05-01 14:59 | 29.98594 | -95.24986 | 2654 ft | 233 kts | 129° |
| 2026-05-01 14:59 | 29.97110 | -95.24019 | 2975 ft | 263 kts | 168° |
| 2026-05-01 14:59 | 29.95283 | -95.24358 | 3833 ft | 264 kts | 199° |
| 2026-05-01 14:59 | 29.93807 | -95.25361 | 5084 ft | 248 kts | 224° |
| 2026-05-01 15:00 | 29.92197 | -95.28946 | 6399 ft | 260 kts | 246° |
| 2026-05-01 15:00 | 29.91562 | -95.30892 | 7095 ft | 261 kts | 247° |
| 2026-05-01 15:00 | 29.90941 | -95.32880 | 7736 ft | 264 kts | 248° |
| 2026-05-01 15:01 | 29.90303 | -95.34876 | 8300 ft | 273 kts | 248° |
| 2026-05-01 15:01 | 29.89623 | -95.36922 | 9033 ft | 270 kts | 247° |
| 2026-05-01 15:01 | 29.88943 | -95.38940 | 9691 ft | 272 kts | 248° |
| 2026-05-01 15:01 | 29.88255 | -95.40962 | 9975 ft | 272 kts | 247° |
| 2026-05-01 15:02 | 29.87551 | -95.43020 | 9966 ft | 277 kts | 247° |
| 2026-05-01 15:02 | 29.87083 | -95.44387 | 9989 ft | 276 kts | 247° |
| 2026-05-01 15:02 | 29.86106 | -95.47229 | 10161 ft | 298 kts | 247° |
| 2026-05-01 15:02 | 29.85307 | -95.49510 | 10293 ft | 317 kts | 245° |
| 2026-05-01 15:03 | 29.84267 | -95.51837 | 10428 ft | 336 kts | 240° |
| 2026-05-01 15:03 | 29.83335 | -95.54349 | 10752 ft | 347 kts | 257° |
| 2026-05-01 15:03 | 29.83296 | -95.57129 | 11368 ft | 351 kts | 277° |
| 2026-05-01 15:03 | 29.84074 | -95.59807 | 11971 ft | 358 kts | 294° |
| 2026-05-01 15:04 | 29.85292 | -95.62314 | 12656 ft | 358 kts | 296° |
| 2026-05-01 15:04 | 29.86548 | -95.64803 | 13235 ft | 361 kts | 297° |
| 2026-05-01 15:04 | 29.87800 | -95.67271 | 13846 ft | 362 kts | 296° |
| 2026-05-01 15:04 | 29.89081 | -95.69813 | 14438 ft | 363 kts | 296° |
| 2026-05-01 15:05 | 29.90343 | -95.72335 | 15095 ft | 360 kts | 295° |
| 2026-05-01 15:05 | 29.91587 | -95.74835 | 15743 ft | 360 kts | 295° |
| 2026-05-01 15:05 | 29.92831 | -95.77351 | 16252 ft | 363 kts | 294° |
| 2026-05-01 15:05 | 29.94066 | -95.79856 | 16775 ft | 364 kts | 294° |
| 2026-05-01 15:06 | 29.95320 | -95.82403 | 17302 ft | 366 kts | 294° |
| 2026-05-01 15:06 | 29.96581 | -95.84966 | 17839 ft | 367 kts | 294° |
| 2026-05-01 15:06 | 29.97844 | -95.87534 | 18341 ft | 369 kts | 293° |
| 2026-05-01 15:06 | 29.99112 | -95.90112 | 18731 ft | 373 kts | 294° |
| 2026-05-01 15:07 | 30.00389 | -95.92714 | 19038 ft | 378 kts | 294° |
| 2026-05-01 15:07 | 30.01692 | -95.95371 | 19439 ft | 380 kts | 294° |
| 2026-05-01 15:07 | 30.02993 | -95.98024 | 19861 ft | 382 kts | 294° |
| 2026-05-01 15:07 | 30.04229 | -96.00543 | 20211 ft | 385 kts | 294° |
| 2026-05-01 15:08 | 30.05555 | -96.03250 | 20584 ft | 388 kts | 294° |
| 2026-05-01 15:08 | 30.06723 | -96.06041 | 20927 ft | 387 kts | 287° |
| 2026-05-01 15:08 | 30.07530 | -96.09002 | 21274 ft | 386 kts | 278° |
| 2026-05-01 15:08 | 30.07997 | -96.12053 | 21618 ft | 387 kts | 276° |
| 2026-05-01 15:09 | 30.08445 | -96.15133 | 21975 ft | 390 kts | 276° |
| 2026-05-01 15:09 | 30.08909 | -96.18229 | 22324 ft | 393 kts | 277° |
| 2026-05-01 15:09 | 30.09387 | -96.21345 | 22675 ft | 396 kts | 277° |
| 2026-05-01 15:09 | 30.09873 | -96.24485 | 23031 ft | 398 kts | 277° |
| 2026-05-01 15:10 | 30.10361 | -96.27646 | 23370 ft | 401 kts | 277° |
| 2026-05-01 15:10 | 30.11338 | -96.34006 | 23990 ft | 403 kts | 277° |
| 2026-05-01 15:10 | 30.11821 | -96.37156 | 24300 ft | 404 kts | 277° |
| 2026-05-01 15:11 | 30.12310 | -96.40352 | 24617 ft | 405 kts | 276° |
| 2026-05-01 15:11 | 30.13292 | -96.46787 | 25226 ft | 408 kts | 276° |
| 2026-05-01 15:11 | 30.13784 | -96.50021 | 25481 ft | 410 kts | 276° |
| 2026-05-01 15:12 | 30.14279 | -96.53281 | 25756 ft | 412 kts | 276° |
| 2026-05-01 15:12 | 30.15268 | -96.59805 | 26410 ft | 413 kts | 276° |
| 2026-05-01 15:12 | 30.15764 | -96.63080 | 26691 ft | 414 kts | 276° |
| 2026-05-01 15:13 | 30.17247 | -96.72916 | 27876 ft | 411 kts | 276° |
| 2026-05-01 15:14 | 30.18226 | -96.79444 | 28444 ft | 414 kts | 276° |
| 2026-05-01 15:14 | 30.18716 | -96.82730 | 28714 ft | 415 kts | 276° |
| 2026-05-01 15:14 | 30.19700 | -96.89333 | 29240 ft | 418 kts | 275° |
| 2026-05-01 15:15 | 30.20677 | -96.95890 | 30025 ft | 415 kts | 275° |
| 2026-05-01 15:15 | 30.21609 | -97.02182 | 30835 ft | 408 kts | 274° |
| 2026-05-01 15:16 | 30.22558 | -97.08591 | 31634 ft | 403 kts | 274° |
| 2026-05-01 15:16 | 30.23510 | -97.14986 | 32096 ft | 403 kts | 274° |
| 2026-05-01 15:17 | 30.24459 | -97.21341 | 32811 ft | 398 kts | 274° |
| 2026-05-01 15:18 | 30.25860 | -97.30788 | 33694 ft | 397 kts | 274° |
| 2026-05-01 15:18 | 30.26325 | -97.33933 | 33975 ft | 396 kts | 274° |
| 2026-05-01 15:19 | 30.27715 | -97.43395 | 33968 ft | 399 kts | 274° |
| 2026-05-01 15:19 | 30.29094 | -97.52787 | 33988 ft | 393 kts | 273° |
| 2026-05-01 15:20 | 30.30454 | -97.62138 | 34002 ft | 393 kts | 274° |
| 2026-05-01 15:21 | 30.31359 | -97.68375 | 33989 ft | 393 kts | 274° |
| 2026-05-01 15:21 | 30.32347 | -97.74615 | 33990 ft | 396 kts | 277° |
| 2026-05-01 15:22 | 30.34325 | -97.83892 | 34028 ft | 398 kts | 278° |
| 2026-05-01 15:22 | 30.35666 | -97.90122 | 34014 ft | 399 kts | 277° |
| 2026-05-01 15:23 | 30.36987 | -97.96366 | 34032 ft | 399 kts | 277° |
| 2026-05-01 15:23 | 30.38255 | -98.02403 | 34024 ft | 400 kts | 277° |
| 2026-05-01 15:24 | 30.39569 | -98.08675 | 34027 ft | 400 kts | 277° |
| 2026-05-01 15:24 | 30.40866 | -98.14883 | 34014 ft | 400 kts | 277° |
| 2026-05-01 15:25 | 30.42170 | -98.21141 | 33989 ft | 400 kts | 277° |
| 2026-05-01 15:25 | 30.43475 | -98.27420 | 33982 ft | 400 kts | 277° |
| 2026-05-01 15:26 | 30.44775 | -98.33689 | 33981 ft | 400 kts | 277° |
| 2026-05-01 15:26 | 30.46129 | -98.39942 | 33983 ft | 400 kts | 278° |
| 2026-05-01 15:27 | 30.47529 | -98.46163 | 33992 ft | 398 kts | 278° |
| 2026-05-01 15:28 | 30.49605 | -98.55440 | 33997 ft | 395 kts | 278° |
| 2026-05-01 15:28 | 30.50962 | -98.61557 | 34000 ft | 393 kts | 278° |
| 2026-05-01 15:29 | 30.52989 | -98.70738 | 34001 ft | 391 kts | 278° |
| 2026-05-01 15:30 | 30.55673 | -98.82959 | 33995 ft | 390 kts | 278° |
| 2026-05-01 15:31 | 30.59630 | -99.01073 | 33988 ft | 391 kts | 278° |
| 2026-05-01 15:32 | 30.62305 | -99.13395 | 34116 ft | 395 kts | 277° |
| 2026-05-01 15:33 | 30.64298 | -99.22592 | 35093 ft | 386 kts | 277° |
| 2026-05-01 15:34 | 30.66255 | -99.31684 | 35647 ft | 388 kts | 277° |